createdAt,value
2016-10-17T00:01:05.754Z,0
2016-10-17T00:02:16.041Z,0
2016-10-17T00:03:26.341Z,0
2016-10-17T00:04:36.336Z,0
2016-10-17T00:05:45.694Z,0
2016-10-17T00:06:55.986Z,0
2016-10-17T00:08:06.286Z,0
2016-10-17T00:09:16.253Z,0
2016-10-17T00:10:26.544Z,0
2016-10-17T00:11:36.831Z,0
2016-10-17T00:12:47.112Z,0
2016-10-17T00:13:57.399Z,0
2016-10-17T00:15:07.687Z,0
2016-10-17T00:16:17.656Z,0
2016-10-17T00:17:27.944Z,0
2016-10-17T00:18:38.227Z,0
2016-10-17T00:19:48.511Z,0
2016-10-17T00:20:58.779Z,0
2016-10-17T00:22:08.750Z,0
2016-10-17T00:23:19.061Z,0
2016-10-17T00:24:29.348Z,0
2016-10-17T00:25:39.631Z,0
2016-10-17T00:26:49.308Z,0
2016-10-17T00:27:59.292Z,0
2016-10-17T00:29:09.260Z,0
2016-10-17T00:30:19.260Z,0
2016-10-17T00:31:29.552Z,0
2016-10-17T00:32:39.217Z,0
2016-10-17T00:33:49.190Z,0
2016-10-17T00:34:59.482Z,0
2016-10-17T00:36:09.768Z,0
2016-10-17T00:37:20.067Z,0
2016-10-17T00:38:30.338Z,0
2016-10-17T00:39:40.639Z,0
2016-10-17T00:40:50.631Z,0
2016-10-17T00:42:00.933Z,0
2016-10-17T00:43:10.923Z,0
2016-10-17T00:44:20.928Z,0
2016-10-17T00:45:30.616Z,0
2016-10-17T00:46:40.609Z,0
2016-10-17T00:47:50.616Z,0
2016-10-17T00:49:00.892Z,0
2016-10-17T00:50:10.869Z,0
2016-10-17T00:51:20.841Z,0
2016-10-17T00:52:31.119Z,0
2016-10-17T00:53:41.399Z,0
2016-10-17T00:54:51.378Z,0
2016-10-17T00:56:01.367Z,0
2016-10-17T00:57:11.650Z,0
2016-10-17T00:58:21.936Z,0
2016-10-17T00:59:31.913Z,0
2016-10-17T01:00:42.209Z,0
2016-10-17T01:01:52.187Z,0
2016-10-17T01:03:02.167Z,0
2016-10-17T01:04:12.450Z,0
2016-10-17T01:05:22.431Z,0
2016-10-17T01:06:32.468Z,0
2016-10-17T01:07:42.754Z,0
2016-10-17T01:08:53.040Z,0
2016-10-17T01:10:03.344Z,0
2016-10-17T01:11:13.325Z,0
2016-10-17T01:12:23.313Z,0
2016-10-17T01:13:33.289Z,0
2016-10-17T01:14:43.260Z,0
2016-10-17T01:15:53.254Z,0
2016-10-17T01:17:03.538Z,0
2016-10-17T01:18:13.503Z,0
2016-10-17T01:19:23.779Z,0
2016-10-17T01:20:34.083Z,0
2016-10-17T01:21:44.367Z,0
2016-10-17T01:22:54.041Z,0
2016-10-17T01:24:04.321Z,0
2016-10-17T01:25:14.014Z,0
2016-10-17T01:26:23.676Z,0
2016-10-17T01:27:33.970Z,0
2016-10-17T01:28:43.974Z,0
2016-10-17T01:29:54.271Z,0
2016-10-17T01:31:04.540Z,0
2016-10-17T01:32:14.519Z,0
2016-10-17T01:33:24.799Z,0
2016-10-17T01:34:34.781Z,0
2016-10-17T01:35:45.091Z,0
2016-10-17T01:36:55.380Z,0
2016-10-17T01:38:05.667Z,0
2016-10-17T01:39:15.963Z,0
2016-10-17T01:40:26.249Z,0
2016-10-17T01:41:35.918Z,0
2016-10-17T01:42:46.212Z,0
2016-10-17T01:43:56.494Z,0
2016-10-17T01:45:06.780Z,0
2016-10-17T01:46:17.072Z,0
2016-10-17T01:47:27.050Z,0
2016-10-17T01:48:37.340Z,0
2016-10-17T01:49:47.628Z,0
2016-10-17T01:50:57.605Z,0
2016-10-17T01:52:07.894Z,0
2016-10-17T01:53:18.197Z,0
2016-10-17T01:54:28.501Z,0
2016-10-17T01:55:38.791Z,0
2016-10-17T01:56:48.758Z,0
2016-10-17T01:57:59.046Z,0
2016-10-17T01:59:09.033Z,0
2016-10-17T02:00:19.334Z,0
2016-10-17T02:01:29.319Z,0
2016-10-17T02:02:39.306Z,0
2016-10-17T02:03:49.581Z,0
2016-10-17T02:04:59.871Z,0
2016-10-17T02:06:10.191Z,0
2016-10-17T02:07:20.180Z,0
2016-10-17T02:08:29.854Z,0
2016-10-17T02:09:39.824Z,0
2016-10-17T02:10:50.119Z,0
2016-10-17T02:12:00.104Z,0
2016-10-17T02:13:10.388Z,0
2016-10-17T02:14:20.698Z,0
2016-10-17T02:15:30.991Z,0
2016-10-17T02:16:41.284Z,0
2016-10-17T02:17:51.275Z,0
2016-10-17T02:19:01.565Z,0
2016-10-17T02:20:11.878Z,0
2016-10-17T02:21:22.166Z,0
2016-10-17T02:22:32.677Z,0
2016-10-17T02:23:42.354Z,0
2016-10-17T02:24:52.671Z,0
2016-10-17T02:26:02.647Z,0
2016-10-17T02:27:12.928Z,0
2016-10-17T02:28:23.220Z,0
2016-10-17T02:29:33.185Z,0
2016-10-17T02:30:43.470Z,0
2016-10-17T02:31:53.742Z,0
2016-10-17T02:33:03.719Z,0
2016-10-17T02:34:13.391Z,0
2016-10-17T02:35:23.361Z,0
2016-10-17T02:36:33.356Z,0
2016-10-17T02:37:43.374Z,0
2016-10-17T02:38:53.657Z,0
2016-10-17T02:40:03.960Z,0
2016-10-17T02:41:14.251Z,0
2016-10-17T02:42:24.548Z,0
2016-10-17T02:43:34.520Z,0
2016-10-17T02:44:44.816Z,0
2016-10-17T02:45:55.118Z,0
2016-10-17T02:47:05.077Z,0
2016-10-17T02:48:15.386Z,0
2016-10-17T02:49:25.668Z,0
2016-10-17T02:50:35.644Z,0
2016-10-17T02:51:45.617Z,0
2016-10-17T02:52:55.904Z,0
2016-10-17T02:54:06.197Z,0
2016-10-17T02:55:16.176Z,0
2016-10-17T02:56:26.465Z,0
2016-10-17T02:57:36.751Z,0
2016-10-17T02:58:46.424Z,0
2016-10-17T02:59:56.705Z,0
2016-10-17T03:01:06.687Z,0
2016-10-17T03:33:11.842Z,0
2016-10-17T03:34:21.497Z,0
2016-10-17T03:35:31.765Z,0
2016-10-17T03:36:42.043Z,0
2016-10-17T03:37:52.013Z,0
2016-10-17T03:39:02.316Z,0
2016-10-17T03:40:12.604Z,0
2016-10-17T03:41:22.576Z,0
2016-10-17T03:42:32.549Z,0
2016-10-17T03:43:42.531Z,0
2016-10-17T03:44:52.194Z,0
2016-10-17T03:46:02.490Z,0
2016-10-17T03:47:12.492Z,0
2016-10-17T03:48:22.472Z,0
2016-10-17T03:49:32.765Z,0
2016-10-17T03:50:42.748Z,0
2016-10-17T03:51:52.738Z,0
2016-10-17T03:53:03.040Z,0
2016-10-17T03:54:13.326Z,0
2016-10-17T03:55:23.628Z,0
2016-10-17T03:56:33.620Z,0
2016-10-17T03:57:43.273Z,0
2016-10-17T03:58:53.564Z,0
2016-10-17T04:00:03.551Z,0
2016-10-17T04:01:13.842Z,0
2016-10-17T04:02:23.844Z,0
2016-10-17T04:03:34.144Z,0
2016-10-17T04:04:44.128Z,0
2016-10-17T04:05:54.437Z,0
2016-10-17T04:07:04.425Z,0
2016-10-17T04:08:14.704Z,0
2016-10-17T04:09:24.984Z,0
2016-10-17T04:10:34.957Z,0
2016-10-17T04:11:45.246Z,0
2016-10-17T04:12:55.227Z,0
2016-10-17T04:14:05.215Z,0
2016-10-17T04:15:15.188Z,0
2016-10-17T04:16:25.464Z,0
2016-10-17T04:17:35.756Z,0
2016-10-17T04:18:46.034Z,0
2016-10-17T04:19:56.325Z,0
2016-10-17T04:21:06.321Z,0
2016-10-17T04:22:15.990Z,0
2016-10-17T04:23:26.275Z,0
2016-10-17T04:24:36.577Z,0
2016-10-17T04:25:46.550Z,0
2016-10-17T04:26:56.533Z,0
2016-10-17T04:28:06.528Z,0
2016-10-17T04:29:16.515Z,0
2016-10-17T04:30:26.820Z,0
2016-10-17T04:31:37.113Z,0
2016-10-17T04:32:47.396Z,0
2016-10-17T04:33:57.685Z,0
2016-10-17T04:35:07.363Z,0
2016-10-17T04:36:17.337Z,0
2016-10-17T04:37:27.630Z,0
2016-10-17T04:38:37.916Z,0
2016-10-17T04:39:47.904Z,0
2016-10-17T04:40:58.207Z,0
2016-10-17T04:42:08.501Z,0
2016-10-17T04:43:18.791Z,0
2016-10-17T04:44:28.787Z,0
2016-10-17T04:45:39.077Z,0
2016-10-17T04:46:49.059Z,0
2016-10-17T04:47:58.751Z,4
2016-10-17T04:49:09.036Z,4
2016-10-17T04:50:18.704Z,4
2016-10-17T04:51:28.680Z,0
2016-10-17T04:52:38.659Z,0
2016-10-17T04:53:48.948Z,4
2016-10-17T04:54:59.225Z,4
2016-10-17T04:56:09.206Z,4
2016-10-17T04:57:19.484Z,4
2016-10-17T04:58:29.794Z,8
2016-10-17T04:59:40.082Z,4
2016-10-17T05:00:50.366Z,8
2016-10-17T05:02:00.665Z,8
2016-10-17T05:03:10.656Z,12
2016-10-17T05:04:20.952Z,12
2016-10-17T05:05:30.932Z,12
2016-10-17T05:06:40.907Z,20
2016-10-17T05:07:50.881Z,20
2016-10-17T05:09:01.180Z,24
2016-10-17T05:10:10.861Z,32
2016-10-17T05:11:20.829Z,36
2016-10-17T05:12:31.102Z,40
2016-10-17T05:13:41.397Z,44
2016-10-17T05:14:51.678Z,52
2016-10-17T05:16:01.040Z,60
2016-10-17T05:17:11.328Z,72
2016-10-17T05:18:21.613Z,80
2016-10-17T05:19:31.593Z,84
2016-10-17T05:20:41.877Z,92
2016-10-17T05:21:52.158Z,96
2016-10-17T05:23:02.465Z,104
2016-10-17T05:24:12.128Z,108
2016-10-17T05:25:22.113Z,116
2016-10-17T05:26:32.411Z,128
2016-10-17T05:27:42.397Z,136
2016-10-17T05:28:52.678Z,144
2016-10-17T05:30:02.394Z,156
2016-10-17T05:31:12.059Z,164
2016-10-17T05:32:22.358Z,180
2016-10-17T05:33:32.346Z,196
2016-10-17T05:34:42.341Z,220
2016-10-17T05:35:52.648Z,240
2016-10-17T05:37:02.931Z,260
2016-10-17T05:38:12.901Z,276
2016-10-17T05:39:22.883Z,284
2016-10-17T05:40:32.886Z,296
2016-10-17T05:41:43.187Z,308
2016-10-17T05:42:53.189Z,324
2016-10-17T05:44:03.484Z,344
2016-10-17T05:45:13.501Z,356
2016-10-17T05:46:23.483Z,368
2016-10-17T05:47:33.768Z,384
2016-10-17T05:48:43.447Z,400
2016-10-17T05:49:53.724Z,404
2016-10-17T05:51:03.713Z,408
2016-10-17T05:52:13.990Z,412
2016-10-17T05:53:23.661Z,408
2016-10-17T05:54:33.944Z,408
2016-10-17T05:55:43.304Z,420
2016-10-17T05:56:53.301Z,428
2016-10-17T05:58:03.588Z,428
2016-10-17T05:59:13.563Z,416
2016-10-17T06:00:23.846Z,400
2016-10-17T06:01:33.842Z,376
2016-10-17T06:02:44.134Z,364
2016-10-17T06:03:53.525Z,372
2016-10-17T06:05:03.811Z,392
2016-10-17T06:06:14.112Z,424
2016-10-17T06:07:24.105Z,464
2016-10-17T06:08:34.081Z,488
2016-10-17T06:09:44.047Z,488
2016-10-17T06:10:54.354Z,480
2016-10-17T06:12:04.341Z,464
2016-10-17T06:13:14.323Z,448
2016-10-17T06:14:24.624Z,456
2016-10-17T06:15:34.595Z,468
2016-10-17T06:16:44.568Z,480
2016-10-17T06:17:54.535Z,488
2016-10-17T06:19:04.853Z,504
2016-10-17T06:20:14.843Z,524
2016-10-17T06:21:25.124Z,556
2016-10-17T06:22:35.101Z,608
2016-10-17T06:23:45.418Z,676
2016-10-17T06:24:55.694Z,752
2016-10-17T06:26:05.986Z,792
2016-10-17T06:27:15.338Z,792
2016-10-17T06:28:25.320Z,792
2016-10-17T06:29:35.300Z,804
2016-10-17T06:30:45.287Z,816
2016-10-17T06:31:54.970Z,804
2016-10-17T06:33:05.281Z,788
2016-10-17T06:34:15.267Z,772
2016-10-17T06:35:25.248Z,772
2016-10-17T06:36:35.525Z,800
2016-10-17T06:37:45.818Z,836
2016-10-17T06:38:55.802Z,840
2016-10-17T06:40:05.465Z,832
2016-10-17T06:41:15.747Z,808
2016-10-17T06:42:25.721Z,804
2016-10-17T06:43:36.016Z,812
2016-10-17T06:44:45.684Z,800
2016-10-17T06:45:55.983Z,800
2016-10-17T06:47:06.272Z,820
2016-10-17T06:48:16.252Z,868
2016-10-17T06:49:26.543Z,912
2016-10-17T06:50:36.851Z,908
2016-10-17T06:51:47.153Z,872
2016-10-17T06:52:57.135Z,876
2016-10-17T06:54:07.435Z,884
2016-10-17T06:55:17.723Z,856
2016-10-17T06:56:28.008Z,844
2016-10-17T06:57:38.011Z,900
2016-10-17T06:58:48.366Z,944
2016-10-17T06:59:58.045Z,956
2016-10-17T07:01:08.338Z,948
2016-10-17T07:02:18.632Z,924
2016-10-17T07:03:28.901Z,912
2016-10-17T07:04:38.881Z,924
2016-10-17T07:05:49.174Z,916
2016-10-17T07:06:59.469Z,940
2016-10-17T07:08:09.446Z,928
2016-10-17T07:09:19.742Z,888
2016-10-17T07:10:29.865Z,904
2016-10-17T07:11:40.152Z,924
2016-10-17T07:12:50.473Z,916
2016-10-17T07:14:00.769Z,892
2016-10-17T07:15:10.457Z,856
2016-10-17T07:16:20.449Z,824
2016-10-17T07:17:30.739Z,820
2016-10-17T07:18:41.071Z,824
2016-10-17T07:19:51.043Z,856
2016-10-17T07:21:00.409Z,856
2016-10-17T07:22:10.696Z,828
2016-10-17T07:23:20.988Z,828
2016-10-17T07:24:31.286Z,880
2016-10-17T07:25:41.278Z,912
2016-10-17T07:26:51.257Z,952
2016-10-17T07:28:01.239Z,952
2016-10-17T07:29:11.526Z,1000
2016-10-17T07:30:21.508Z,1072
2016-10-17T07:31:31.810Z,1048
2016-10-17T07:32:42.109Z,984
2016-10-17T07:33:52.415Z,1000
2016-10-17T07:35:02.701Z,1092
2016-10-17T07:36:12.982Z,1140
2016-10-17T07:37:23.276Z,1084
2016-10-17T07:38:33.562Z,1032
2016-10-17T07:39:43.861Z,1004
2016-10-17T07:40:54.152Z,1032
2016-10-17T07:42:04.436Z,1068
2016-10-17T07:43:14.765Z,1068
2016-10-17T07:44:25.066Z,1100
2016-10-17T07:45:34.732Z,1088
2016-10-17T07:46:45.034Z,1028
2016-10-17T07:47:55.310Z,1028
2016-10-17T07:49:05.603Z,1052
2016-10-17T07:50:15.895Z,1084
2016-10-17T07:51:26.240Z,1068
2016-10-17T07:52:36.528Z,1124
2016-10-17T07:53:46.523Z,1204
2016-10-17T07:54:56.874Z,1156
2016-10-17T07:56:07.176Z,1092
2016-10-17T07:57:17.469Z,1120
2016-10-17T07:58:27.792Z,1152
2016-10-17T08:00:46.824Z,1164
2016-10-17T08:01:57.111Z,1160
2016-10-17T08:03:07.083Z,1240
2016-10-17T08:04:17.371Z,1368
2016-10-17T08:05:27.659Z,1472
2016-10-17T08:06:37.942Z,1456
2016-10-17T08:07:48.224Z,1396
2016-10-17T08:08:58.516Z,1388
2016-10-17T08:10:08.187Z,1356
2016-10-17T08:11:18.171Z,1348
2016-10-17T08:12:28.135Z,1372
2016-10-17T08:13:38.423Z,1400
2016-10-17T08:14:48.709Z,1364
2016-10-17T08:15:58.677Z,1364
2016-10-17T08:17:08.663Z,1328
2016-10-17T08:18:18.641Z,1352
2016-10-17T08:19:28.943Z,1428
2016-10-17T08:20:39.220Z,1456
2016-10-17T08:21:49.202Z,1432
2016-10-17T08:22:59.497Z,1340
2016-10-17T08:24:09.764Z,1324
2016-10-17T08:25:19.736Z,1408
2016-10-17T08:26:30.028Z,1528
2016-10-17T08:27:40.012Z,1644
2016-10-17T08:28:50.295Z,1664
2016-10-17T08:30:00.271Z,1580
2016-10-17T08:31:10.324Z,1520
2016-10-17T08:32:20.610Z,1516
2016-10-17T08:33:30.886Z,1580
2016-10-17T08:34:41.181Z,1708
2016-10-17T08:35:51.470Z,1748
2016-10-17T08:37:01.747Z,1732
2016-10-17T08:38:11.773Z,1664
2016-10-17T08:39:22.061Z,1660
2016-10-17T08:40:32.364Z,1652
2016-10-17T08:41:42.335Z,1716
2016-10-17T08:42:52.325Z,1824
2016-10-17T08:44:02.621Z,1820
2016-10-17T08:45:12.908Z,1824
2016-10-17T08:46:23.199Z,1916
2016-10-17T08:47:33.482Z,2016
2016-10-17T08:48:43.776Z,2060
2016-10-17T08:49:54.057Z,2004
2016-10-17T08:51:04.337Z,1972
2016-10-17T08:52:14.861Z,2096
2016-10-17T08:53:24.850Z,2200
2016-10-17T08:54:35.142Z,2188
2016-10-17T08:55:45.465Z,2200
2016-10-17T08:56:55.752Z,2168
2016-10-17T08:58:05.746Z,2144
2016-10-17T08:59:16.036Z,2300
2016-10-17T09:00:26.010Z,2376
2016-10-17T09:01:36.291Z,2448
2016-10-17T09:02:46.598Z,2488
2016-10-17T09:03:56.926Z,2488
2016-10-17T09:05:07.243Z,2376
2016-10-17T09:06:17.531Z,2224
2016-10-17T09:07:27.907Z,2228
2016-10-17T09:08:37.882Z,2224
2016-10-17T09:09:47.870Z,2176
2016-10-17T09:10:58.155Z,2228
2016-10-17T09:12:08.127Z,2168
2016-10-17T09:13:18.421Z,2128
2016-10-17T09:14:28.721Z,2140
2016-10-17T09:15:39.008Z,2140
2016-10-17T09:16:48.689Z,2108
2016-10-17T09:17:58.973Z,2196
2016-10-17T09:19:09.268Z,2192
2016-10-17T09:20:19.570Z,2236
2016-10-17T09:21:29.561Z,2324
2016-10-17T09:22:39.873Z,2428
2016-10-17T09:23:49.874Z,2600
2016-10-17T09:25:00.181Z,2724
2016-10-17T09:26:10.469Z,2796
2016-10-17T09:27:20.740Z,2916
2016-10-17T09:28:30.722Z,2944
2016-10-17T09:29:40.089Z,2880
2016-10-17T09:30:50.380Z,2792
2016-10-17T09:32:00.359Z,2660
2016-10-17T09:33:10.659Z,2604
2016-10-17T09:34:20.955Z,2568
2016-10-17T09:35:30.922Z,2564
2016-10-17T09:36:41.222Z,2580
2016-10-17T09:37:51.506Z,2612
2016-10-17T09:39:01.797Z,2708
2016-10-17T09:40:11.784Z,2792
2016-10-17T09:41:22.085Z,2872
2016-10-17T09:42:32.116Z,2804
2016-10-17T09:43:42.394Z,2648
2016-10-17T09:44:52.067Z,2572
2016-10-17T09:46:02.347Z,2580
2016-10-17T09:47:12.629Z,2548
2016-10-17T09:48:22.608Z,2528
2016-10-17T09:49:32.272Z,2512
2016-10-17T09:50:41.940Z,2404
2016-10-17T09:51:52.226Z,2440
2016-10-17T09:53:02.193Z,2564
2016-10-17T09:54:12.479Z,2500
2016-10-17T09:55:22.796Z,2444
2016-10-17T09:56:32.467Z,2340
2016-10-17T09:57:42.450Z,2204
2016-10-17T09:58:52.421Z,2088
2016-10-17T10:00:02.727Z,2100
2016-10-17T10:01:12.699Z,2156
2016-10-17T10:02:25.279Z,2188
2016-10-17T10:03:41.040Z,2152
2016-10-17T10:04:55.925Z,1984
2016-10-17T10:06:08.156Z,1932
2016-10-17T10:07:18.127Z,2004
2016-10-17T10:08:28.150Z,2092
2016-10-17T10:09:38.691Z,2204
2016-10-17T10:10:48.706Z,2112
2016-10-17T10:11:58.767Z,2076
2016-10-17T10:13:08.487Z,2104
2016-10-17T10:14:18.838Z,2208
2016-10-17T10:15:29.196Z,2244
2016-10-17T10:16:39.548Z,2184
2016-10-17T10:17:49.777Z,2116
2016-10-17T10:19:00.804Z,2252
2016-10-17T10:20:11.803Z,2248
2016-10-17T10:21:22.611Z,2188
2016-10-17T10:22:32.027Z,2164
2016-10-17T10:23:42.352Z,2184
2016-10-17T10:24:52.379Z,2120
2016-10-17T10:26:02.671Z,2020
2016-10-17T10:27:18.807Z,1988
2016-10-17T10:28:35.595Z,2016
2016-10-17T10:29:48.380Z,2152
2016-10-17T10:31:00.216Z,2252
2016-10-17T10:32:10.191Z,2260
2016-10-17T10:33:20.508Z,2412
2016-10-17T10:34:30.507Z,2096
2016-10-17T10:35:40.818Z,1864
2016-10-17T10:36:50.791Z,1876
2016-10-17T10:38:00.727Z,1916
2016-10-17T10:39:10.706Z,1968
2016-10-17T10:40:21.013Z,1928
2016-10-17T10:41:31.003Z,1916
2016-10-17T10:42:41.065Z,1936
2016-10-17T10:43:51.426Z,2008
2016-10-17T10:45:01.415Z,2008
2016-10-17T10:46:11.104Z,1948
2016-10-17T10:47:21.076Z,1936
2016-10-17T10:48:30.751Z,1988
2016-10-17T10:49:40.749Z,1984
2016-10-17T10:50:50.117Z,1936
2016-10-17T10:52:00.425Z,1868
2016-10-17T10:53:10.725Z,1884
2016-10-17T10:54:21.031Z,1896
2016-10-17T10:55:31.353Z,1884
2016-10-17T10:56:41.334Z,1900
2016-10-17T10:57:51.628Z,1912
2016-10-17T10:59:01.926Z,1888
2016-10-17T11:00:12.256Z,1916
2016-10-17T11:01:21.921Z,1932
2016-10-17T11:02:32.243Z,1924
2016-10-17T11:03:42.542Z,1800
2016-10-17T11:04:52.844Z,1796
2016-10-17T11:06:02.841Z,1800
2016-10-17T11:07:13.164Z,1724
2016-10-17T11:08:23.514Z,1680
2016-10-17T11:09:33.802Z,1660
2016-10-17T11:10:44.115Z,1664
2016-10-17T11:11:54.419Z,1704
2016-10-17T11:13:04.390Z,1704
2016-10-17T11:14:14.378Z,1728
2016-10-17T11:15:24.696Z,1696
2016-10-17T11:16:34.997Z,1616
2016-10-17T11:17:45.044Z,1640
2016-10-17T11:18:55.330Z,1616
2016-10-17T11:20:05.637Z,1516
2016-10-17T11:21:15.960Z,1448
2016-10-17T11:22:25.637Z,1404
2016-10-17T11:23:35.625Z,1336
2016-10-17T11:24:45.928Z,1324
2016-10-17T11:25:55.650Z,1344
2016-10-17T11:27:05.637Z,1344
2016-10-17T11:28:15.650Z,1352
2016-10-17T11:29:25.650Z,1364
2016-10-17T11:30:35.647Z,1372
2016-10-17T11:31:45.952Z,1360
2016-10-17T11:32:55.926Z,1372
2016-10-17T11:34:06.240Z,1468
2016-10-17T11:35:16.265Z,1496
2016-10-17T11:36:26.598Z,1472
2016-10-17T11:37:36.847Z,1388
2016-10-17T11:38:46.835Z,1356
2016-10-17T11:39:57.151Z,1428
2016-10-17T11:41:06.853Z,1476
2016-10-17T11:42:17.163Z,1464
2016-10-17T11:43:27.154Z,1424
2016-10-17T11:44:37.447Z,1368
2016-10-17T11:45:47.749Z,1300
2016-10-17T11:46:58.045Z,1292
2016-10-17T11:48:08.061Z,1300
2016-10-17T11:49:18.043Z,1316
2016-10-17T11:50:28.012Z,1360
2016-10-17T11:51:38.015Z,1424
2016-10-17T11:52:48.317Z,1476
2016-10-17T11:53:58.304Z,1464
2016-10-17T11:55:08.584Z,1456
2016-10-17T11:56:18.581Z,1416
2016-10-17T11:57:28.891Z,1364
2016-10-17T11:58:39.185Z,1324
2016-10-17T11:59:48.872Z,1316
2016-10-17T12:00:58.860Z,1352
2016-10-17T12:02:09.175Z,1364
2016-10-17T12:03:19.212Z,1292
2016-10-17T12:04:28.583Z,1208
2016-10-17T12:05:38.590Z,1188
2016-10-17T12:06:48.587Z,1212
2016-10-17T12:07:58.864Z,1244
2016-10-17T12:09:09.175Z,1248
2016-10-17T12:10:19.166Z,1220
2016-10-17T12:11:29.149Z,1236
2016-10-17T12:12:39.444Z,1244
2016-10-17T12:13:49.745Z,1180
2016-10-17T12:15:00.094Z,1136
2016-10-17T12:16:10.385Z,1120
2016-10-17T12:17:20.670Z,1136
2016-10-17T12:18:30.669Z,1140
2016-10-17T12:19:40.951Z,1144
2016-10-17T12:20:50.931Z,1156
2016-10-17T12:22:00.642Z,1128
2016-10-17T12:23:10.945Z,1120
2016-10-17T12:24:20.938Z,1116
2016-10-17T12:25:31.279Z,1088
2016-10-17T12:26:41.601Z,1072
2016-10-17T12:27:51.910Z,1108
2016-10-17T12:29:01.897Z,1148
2016-10-17T12:30:11.908Z,1152
2016-10-17T12:31:22.214Z,1152
2016-10-17T12:32:32.519Z,1132
2016-10-17T12:33:42.489Z,1124
2016-10-17T12:34:52.777Z,1084
2016-10-17T12:36:03.078Z,1108
2016-10-17T12:37:13.386Z,1128
2016-10-17T12:38:23.373Z,1252
2016-10-17T12:39:33.365Z,1288
2016-10-17T12:40:43.355Z,1228
2016-10-17T12:41:53.336Z,1120
2016-10-17T12:43:03.633Z,1064
2016-10-17T12:44:14.167Z,1136
2016-10-17T12:45:23.846Z,1136
2016-10-17T12:46:34.166Z,1132
2016-10-17T12:47:44.167Z,1152
2016-10-17T12:48:54.460Z,1200
2016-10-17T12:50:04.448Z,1196
2016-10-17T12:51:14.434Z,1168
2016-10-17T12:52:24.429Z,1088
2016-10-17T12:53:34.123Z,992
2016-10-17T12:54:44.413Z,1000
2016-10-17T12:55:54.400Z,1012
2016-10-17T12:57:04.143Z,1016
2016-10-17T12:58:14.158Z,972
2016-10-17T12:59:24.516Z,968
2016-10-17T13:00:35.038Z,852
2016-10-17T13:01:44.773Z,868
2016-10-17T13:02:55.059Z,920
2016-10-17T13:04:05.049Z,916
2016-10-17T13:05:14.748Z,924
2016-10-17T13:06:25.035Z,972
2016-10-17T13:07:35.358Z,984
2016-10-17T13:08:45.354Z,948
2016-10-17T13:09:55.366Z,872
2016-10-17T13:11:05.658Z,852
2016-10-17T13:12:15.955Z,904
2016-10-17T13:13:26.273Z,884
2016-10-17T13:14:36.264Z,872
2016-10-17T13:15:46.607Z,904
2016-10-17T13:16:56.545Z,924
2016-10-17T13:18:06.530Z,948
2016-10-17T13:19:16.213Z,892
2016-10-17T13:20:25.899Z,888
2016-10-17T13:21:35.576Z,896
2016-10-17T13:22:45.246Z,908
2016-10-17T13:23:55.238Z,904
2016-10-17T13:25:05.584Z,868
2016-10-17T13:26:15.886Z,828
2016-10-17T13:27:26.207Z,820
2016-10-17T13:28:36.514Z,808
2016-10-17T13:29:46.188Z,800
2016-10-17T13:30:56.514Z,788
2016-10-17T13:32:06.801Z,776
2016-10-17T13:33:16.821Z,792
2016-10-17T13:34:26.820Z,788
2016-10-17T13:35:37.125Z,748
2016-10-17T13:36:47.112Z,724
2016-10-17T13:37:57.418Z,724
2016-10-17T13:39:07.402Z,708
2016-10-17T13:40:17.411Z,648
2016-10-17T13:41:27.404Z,612
2016-10-17T13:42:37.108Z,624
2016-10-17T13:43:47.098Z,640
2016-10-17T13:44:57.416Z,624
2016-10-17T13:46:07.706Z,620
2016-10-17T13:47:17.721Z,640
2016-10-17T13:48:27.771Z,632
2016-10-17T13:49:37.782Z,624
2016-10-17T13:50:47.779Z,628
2016-10-17T13:51:58.070Z,636
2016-10-17T13:53:08.084Z,632
2016-10-17T13:54:18.390Z,624
2016-10-17T13:55:28.449Z,612
2016-10-17T13:56:38.460Z,592
2016-10-17T13:57:48.796Z,588
2016-10-17T13:58:58.774Z,580
2016-10-17T14:00:09.091Z,544
2016-10-17T14:01:19.125Z,532
2016-10-17T14:02:29.437Z,516
2016-10-17T14:03:39.750Z,500
2016-10-17T14:04:50.056Z,496
2016-10-17T14:06:00.363Z,480
2016-10-17T14:07:10.662Z,444
2016-10-17T14:08:20.662Z,408
2016-10-17T14:09:30.968Z,396
2016-10-17T14:10:41.275Z,380
2016-10-17T14:11:51.579Z,364
2016-10-17T14:13:01.271Z,364
2016-10-17T14:14:11.271Z,348
2016-10-17T14:15:21.268Z,328
2016-10-17T14:16:31.597Z,320
2016-10-17T14:17:41.938Z,324
2016-10-17T14:18:51.612Z,308
2016-10-17T14:20:01.600Z,300
2016-10-17T14:21:11.924Z,288
2016-10-17T14:22:22.263Z,280
2016-10-17T14:23:32.239Z,272
2016-10-17T14:24:42.544Z,264
2016-10-17T14:25:52.555Z,260
2016-10-17T14:27:02.581Z,256
2016-10-17T14:28:12.880Z,248
2016-10-17T14:29:23.186Z,256
2016-10-17T14:30:33.476Z,256
2016-10-17T14:31:43.481Z,260
2016-10-17T14:32:53.778Z,248
2016-10-17T14:34:04.097Z,236
2016-10-17T14:35:14.088Z,236
2016-10-17T14:36:23.780Z,252
2016-10-17T14:37:33.764Z,256
2016-10-17T14:38:43.850Z,240
2016-10-17T14:39:53.896Z,232
2016-10-17T14:41:04.207Z,220
2016-10-17T14:42:14.523Z,208
2016-10-17T14:43:24.823Z,200
2016-10-17T14:44:35.166Z,196
2016-10-17T14:45:45.479Z,200
2016-10-17T14:46:55.220Z,196
2016-10-17T14:48:05.551Z,184
2016-10-17T14:49:15.855Z,176
2016-10-17T14:50:26.182Z,168
2016-10-17T14:51:36.206Z,168
2016-10-17T14:52:45.894Z,180
2016-10-17T14:53:55.582Z,184
2016-10-17T14:55:05.880Z,184
2016-10-17T14:56:15.888Z,192
2016-10-17T14:57:26.174Z,196
2016-10-17T14:58:35.870Z,196
2016-10-17T14:59:45.877Z,192
2016-10-17T15:00:55.886Z,204
2016-10-17T15:02:05.266Z,212
2016-10-17T15:03:15.573Z,200
2016-10-17T15:04:25.892Z,204
2016-10-17T15:05:36.210Z,208
2016-10-17T15:06:46.586Z,188
2016-10-17T15:07:56.893Z,192
2016-10-17T15:09:07.213Z,196
2016-10-17T15:10:17.513Z,184
2016-10-17T15:11:27.195Z,184
2016-10-17T15:12:37.493Z,188
2016-10-17T15:13:47.491Z,180
2016-10-17T15:14:57.179Z,180
2016-10-17T15:16:07.178Z,176
2016-10-17T15:17:17.470Z,160
2016-10-17T15:18:27.811Z,148
2016-10-17T15:19:37.843Z,148
2016-10-17T15:20:48.180Z,152
2016-10-17T15:21:58.515Z,132
2016-10-17T15:23:08.226Z,128
2016-10-17T15:24:18.554Z,124
2016-10-17T15:25:28.579Z,116
2016-10-17T15:26:38.272Z,116
2016-10-17T15:27:48.293Z,112
2016-10-17T15:28:58.615Z,108
2016-10-17T15:30:08.991Z,96
2016-10-17T15:31:18.699Z,96
2016-10-17T15:32:29.012Z,92
2016-10-17T15:33:39.002Z,80
2016-10-17T15:34:49.331Z,84
2016-10-17T15:35:59.637Z,80
2016-10-17T15:37:09.941Z,72
2016-10-17T15:38:20.256Z,72
2016-10-17T15:39:30.267Z,68
2016-10-17T15:40:40.571Z,68
2016-10-17T15:41:49.953Z,60
2016-10-17T15:42:59.948Z,52
2016-10-17T15:44:10.273Z,52
2016-10-17T15:45:20.585Z,48
2016-10-17T15:46:30.927Z,44
2016-10-17T15:47:41.221Z,40
2016-10-17T15:48:51.516Z,40
2016-10-17T15:50:01.826Z,32
2016-10-17T15:51:11.226Z,28
2016-10-17T15:52:21.220Z,24
2016-10-17T15:53:31.246Z,20
2016-10-17T15:54:41.621Z,16
2016-10-17T15:55:51.620Z,16
2016-10-17T15:57:02.000Z,16
2016-10-17T15:58:11.992Z,16
2016-10-17T15:59:22.285Z,12
2016-10-17T16:00:32.574Z,12
2016-10-17T16:01:42.902Z,12
2016-10-17T16:02:53.206Z,8
2016-10-17T16:04:03.204Z,8
2016-10-17T16:05:13.506Z,8
2016-10-17T16:06:23.822Z,8
2016-10-17T16:07:33.792Z,4
2016-10-17T16:08:43.770Z,4
2016-10-17T16:09:53.758Z,4
2016-10-17T16:11:03.786Z,4
2016-10-17T16:12:13.518Z,4
2016-10-17T16:13:23.513Z,4
2016-10-17T16:14:33.491Z,0
2016-10-17T16:15:43.182Z,4
2016-10-17T16:16:53.176Z,4
2016-10-17T16:18:03.474Z,4
2016-10-17T16:19:13.197Z,4
2016-10-17T16:20:23.189Z,0
2016-10-17T16:21:33.227Z,0
2016-10-17T16:22:42.953Z,0
2016-10-17T16:23:52.373Z,0
2016-10-17T16:25:02.684Z,0
2016-10-17T16:26:12.678Z,0
2016-10-17T16:27:22.670Z,0
2016-10-17T16:28:32.659Z,0
2016-10-17T16:29:42.643Z,0
2016-10-17T16:30:52.330Z,0
2016-10-17T16:32:02.318Z,0
2016-10-17T16:33:12.626Z,0
2016-10-17T16:34:22.639Z,0
2016-10-17T16:35:32.936Z,0
2016-10-17T16:36:43.223Z,0
2016-10-17T16:37:52.878Z,0
2016-10-17T16:39:03.186Z,0
2016-10-17T16:40:13.180Z,0
2016-10-17T16:41:23.177Z,0
2016-10-17T16:42:33.162Z,0
2016-10-17T16:43:43.461Z,0
2016-10-17T16:44:53.465Z,0
2016-10-17T16:46:03.756Z,0
2016-10-17T16:47:14.076Z,0
2016-10-17T16:48:24.358Z,0
2016-10-17T16:49:34.672Z,0
2016-10-17T16:50:44.720Z,0